メインページ
METAR-TAF:

METAR-TAF

空港 :

トロント・ピアソン国際空港

トロント, オンタリオ州, カナダ

緯度: 43-40N, 経度: 079-38W, 海抜: 173m

現時点の気象観測

当レポートは1時間13分前の06:00(UTC)に作成
西の風 7kt
気温 22°C
湿度 88%
気圧 1010 hPa
視程: 24.1km
高度5000ftの千切れ雲あり
高度7000ftの千切れ雲あり

METAR: CYYZ 170600Z 26007KT 15SM BKN050 BKN070 22/20 A2982 RMK SC5AC2 SLP098 DENSITY ALT 1700FT

時間: 03:13 (07:13 UTC)

予報

当レポートは1時間35分前の05:38(UTC)に作成
予報は17日の 06時(UTC)から 18日の 12時(UTC)まで有効
西の風 8kt
視程: 10km
高度4000ftの千切れ雲あり
17日の 07時(UTC)から 17日の 08時(UTC)まで徐々に
北/北西の風 10kt
17日の 0800時(UTC)から
北/北西の風 10kt
視程: 10km
高度5000ftの雲はほとんどない
17日の 09時(UTC)から 17日の 11時(UTC)まで徐々に
北/北西の風 12kt、最大22ktの突風を伴う
18日の 00時(UTC)から 18日の 02時(UTC)まで徐々に
北/北西の風 10kt

TAF: CYYZ 170538Z 1706/1812 26008KT P6SM BKN040 BECMG 1707/1708 33010KT FM170800 33010KT P6SM FEW050 BECMG 1709/1711 33012G22KT BECMG 1800/1802 33010KT RMK NXT FCST BY 170900Z

4,000以上の空港の気象観測と天気予報(METAR報とTAF報)

利用可能な観測所は地図上に黄色い丸と赤い丸で示す。

丸の上にカーソルを重ねると観測所名を参照できる。

次にクリックすると気象観測と天気予報を参照できる。

マップの切り替え:黒色「×」印の緑ボタンをクリックして拡大、「-」印の緑ボタンをクリックして縮小、緑色の三角印をクリックして隣りの地図に切り替え


METAR-TAF: